Time;durP1;ratioP1;P1;durP2;ratioP2;P2;SDS_P1;SDS_P2;PMS_P1;PMS_P2;Temp;Humidity;BMP_temperature;BMP_pressure;BME280_temperature;BME280_humidity;BME280_pressure;Samples;Min_cycle;Max_cycle;Signal;HPM_P1;HPM_P2
2022/09/12 00:00:22;;;;;;;13.27;9.55;;;;;;;17.92;87.60;98997.38;5033881;28;20063;-70
2022/09/12 00:02:51;;;;;;;9.95;7.95;;;;;;;18.03;87.91;99005.94;5053577;28;20052;-70
2022/09/12 00:05:17;;;;;;;16.05;7.28;;;;;;;18.21;86.98;99003.19;5044306;28;20061;-70
2022/09/12 00:07:42;;;;;;;9.45;7.72;;;;;;;18.15;87.30;99003.97;5033585;28;20077;-70
2022/09/12 00:10:08;;;;;;;10.70;7.93;;;;;;;18.19;87.79;99004.78;5033532;28;20025;-70
2022/09/12 00:12:33;;;;;;;10.38;7.32;;;;;;;18.26;86.62;98999.16;5032052;28;20037;-70
2022/09/12 00:14:59;;;;;;;8.15;6.78;;;;;;;18.36;86.59;99003.22;5038549;28;20013;-70
2022/09/12 00:17:25;;;;;;;8.07;7.28;;;;;;;18.29;87.17;99012.50;5041181;28;20471;-70
2022/09/12 00:19:50;;;;;;;9.10;6.78;;;;;;;18.28;86.94;99002.38;5033583;28;20083;-70
2022/09/12 00:22:15;;;;;;;7.72;6.88;;;;;;;18.31;86.80;99006.44;5033175;28;20033;-70
2022/09/12 00:24:41;;;;;;;8.55;7.03;;;;;;;18.27;85.75;99005.59;5033167;28;20548;-70
2022/09/12 00:27:06;;;;;;;8.77;6.95;;;;;;;18.29;86.43;99006.03;5032938;28;20036;-70
2022/09/12 00:29:32;;;;;;;9.00;6.88;;;;;;;18.32;86.73;99000.38;5040135;28;20025;-70
2022/09/12 00:31:57;;;;;;;11.07;7.32;;;;;;;18.37;85.34;98999.19;5050617;28;20033;-70
2022/09/12 00:34:23;;;;;;;9.10;7.43;;;;;;;18.41;85.67;98988.69;5032899;28;20022;-70
2022/09/12 00:36:48;;;;;;;7.88;7.07;;;;;;;18.35;85.16;98987.44;5032241;28;20021;-70
2022/09/12 00:39:15;;;;;;;8.82;7.93;;;;;;;18.46;85.24;98995.97;5031422;28;20036;-70
2022/09/12 00:41:41;;;;;;;10.75;7.55;;;;;;;18.43;84.91;98991.94;5042222;28;20067;-70
2022/09/12 00:44:22;;;;;;;9.85;7.35;;;;;;;18.41;85.66;98994.34;5051291;28;20494;-70
2022/09/12 00:47:13;;;;;;;11.63;7.45;;;;;;;18.44;84.02;98998.38;5052617;28;20160;-70
2022/09/12 00:49:51;;;;;;;8.75;7.82;;;;;;;18.47;84.79;99000.44;5052451;28;20021;-70
2022/09/12 00:52:32;;;;;;;9.40;7.78;;;;;;;18.47;84.99;99003.28;5052535;28;20402;-70
2022/09/12 00:55:14;;;;;;;9.65;7.57;;;;;;;18.51;83.63;99001.25;5050765;28;20029;-70
2022/09/12 00:57:55;;;;;;;11.75;8.98;;;;;;;18.33;84.20;99002.00;5046129;28;20090;-70
2022/09/12 01:00:24;;;;;;;8.68;7.78;;;;;;;18.27;83.75;99008.44;5032472;28;20480;-70
2022/09/12 01:03:14;;;;;;;9.68;7.63;;;;;;;18.04;84.76;99004.72;5032269;28;20549;-70
2022/09/12 01:05:46;;;;;;;8.60;7.07;;;;;;;18.22;83.32;98993.47;5031681;28;20114;-70
2022/09/12 01:08:12;;;;;;;9.30;7.63;;;;;;;18.35;82.39;98987.44;5031247;28;20034;-70
2022/09/12 01:10:40;;;;;;;11.45;8.00;;;;;;;18.54;82.12;98997.59;5031911;28;20033;-70
2022/09/12 01:13:07;;;;;;;8.13;6.85;;;;;;;18.56;81.35;98994.38;5031976;28;20049;-70
2022/09/12 01:15:33;;;;;;;9.32;7.50;;;;;;;18.67;81.01;98998.06;5032066;28;20056;-70
2022/09/12 01:18:08;;;;;;;7.03;6.32;;;;;;;18.76;80.85;98986.31;5042818;28;20024;-70
2022/09/12 01:21:00;;;;;;;7.20;6.50;;;;;;;18.78;81.48;99000.88;5052177;28;20021;-70
2022/09/12 01:23:56;;;;;;;8.00;6.85;;;;;;;18.68;80.88;98996.84;5050774;28;20025;-70
2022/09/12 01:26:45;;;;;;;8.25;6.63;;;;;;;18.54;79.30;98986.28;5052141;28;20496;-70
2022/09/12 01:29:24;;;;;;;9.10;6.70;;;;;;;18.31;80.52;98997.97;5038073;28;20062;-70
2022/09/12 01:32:03;;;;;;;9.23;7.32;;;;;;;18.01;81.54;98994.19;5050867;28;20483;-70
2022/09/12 01:34:45;;;;;;;10.10;7.25;;;;;;;17.65;83.12;98988.34;5052173;28;20052;-70
2022/09/12 01:37:16;;;;;;;10.02;7.90;;;;;;;17.68;84.14;98996.84;5033163;28;20032;-70
2022/09/12 01:39:48;;;;;;;9.27;7.50;;;;;;;17.76;84.46;99002.53;5031635;28;20040;-70
2022/09/12 01:42:39;;;;;;;9.52;7.60;;;;;;;17.62;83.67;98994.78;5038448;28;20032;-70
2022/09/12 01:45:23;;;;;;;10.93;7.85;;;;;;;17.48;84.61;98998.31;5031674;28;20080;-70
2022/09/12 01:48:03;;;;;;;9.30;8.30;;;;;;;17.49;83.94;98994.28;5031840;28;20024;-70
2022/09/12 01:50:37;;;;;;;9.77;8.27;;;;;;;17.34;84.58;98982.06;5031781;28;20029;-70
2022/09/12 01:53:28;;;;;;;12.30;8.90;;;;;;;17.31;85.10;99002.66;5033067;28;20037;-70
2022/09/12 01:56:02;;;;;;;9.32;8.20;;;;;;;17.22;84.64;98994.50;5051234;28;20052;-70
2022/09/12 01:58:40;;;;;;;11.40;7.75;;;;;;;17.30;85.36;98986.91;5034143;28;20102;-70
2022/09/12 02:01:14;;;;;;;8.48;7.47;;;;;;;17.22;85.00;98983.22;5031706;28;20026;-70
2022/09/12 02:04:14;;;;;;;11.13;9.18;;;;;;;17.23;84.88;98979.97;5031607;28;20029;-70
2022/09/12 02:06:48;;;;;;;13.30;9.40;;;;;;;17.24;84.38;98980.78;5041026;28;20025;-70
2022/09/12 02:09:28;;;;;;;9.98;8.93;;;;;;;17.03;85.07;98970.94;5051571;28;20029;-70
2022/09/12 02:11:57;;;;;;;11.25;8.25;;;;;;;16.93;85.44;98982.94;5049112;28;20055;-70
2022/09/12 02:14:27;;;;;;;11.57;8.93;;;;;;;16.89;84.95;98987.75;5051613;28;20025;-70
2022/09/12 02:17:03;;;;;;;11.10;8.73;;;;;;;16.86;84.80;98977.25;5044630;28;20071;-70
2022/09/12 02:19:39;;;;;;;8.85;7.95;;;;;;;16.87;85.28;98976.03;5044503;28;20057;-70
2022/09/12 02:22:08;;;;;;;11.23;7.57;;;;;;;16.98;84.65;98974.91;5055451;28;20020;-70
2022/09/12 02:24:38;;;;;;;11.90;8.33;;;;;;;16.98;83.44;98971.28;5047231;28;20104;-70
2022/09/12 02:27:18;;;;;;;11.18;7.60;;;;;;;17.05;83.42;98985.47;5035296;28;20023;-70
2022/09/12 02:29:44;;;;;;;;;;;;;;;16.96;82.60;98977.31;5035664;28;20034;-70
2022/09/12 02:32:25;;;;;;;9.90;7.88;;;;;;;16.87;83.57;98985.31;5033978;28;19959;-70
2022/09/12 02:35:00;;;;;;;11.20;8.45;;;;;;;16.89;83.47;98980.06;5035188;28;20048;-70
2022/09/12 02:37:40;;;;;;;15.77;7.57;;;;;;;16.87;83.13;98981.69;5035168;28;20025;-70
2022/09/12 02:40:07;;;;;;;;;;;;;;;16.86;83.66;98980.06;5048736;28;20176;-70
2022/09/12 02:42:34;;;;;;;8.45;7.65;;;;;;;16.86;83.17;98983.69;5049268;28;19916;-70
2022/09/12 02:45:00;;;;;;;8.77;7.90;;;;;;;16.97;83.03;98987.41;5034811;28;20640;-70
2022/09/12 02:47:58;;;;;;;7.72;6.88;;;;;;;16.94;82.12;98985.38;5035004;28;20026;-70
2022/09/12 02:50:24;;;;;;;8.85;7.28;;;;;;;17.04;81.31;98983.88;5034215;28;20033;-70
2022/09/12 02:52:52;;;;;;;8.18;7.10;;;;;;;17.12;80.71;98976.25;5054772;28;20380;-70
2022/09/12 02:55:18;;;;;;;12.90;7.28;;;;;;;17.01;79.98;98970.53;5038246;28;20022;-70
2022/09/12 02:57:44;;;;;;;9.52;7.50;;;;;;;16.91;80.35;98974.03;5034992;28;20025;-70
2022/09/12 03:00:10;;;;;;;9.45;8.13;;;;;;;16.89;80.84;98980.06;5033488;28;20025;-70
2022/09/12 03:03:08;;;;;;;10.05;7.53;;;;;;;16.76;81.32;98984.38;5034568;28;20029;-70
2022/09/12 03:05:58;;;;;;;12.25;7.53;;;;;;;16.58;82.12;98984.22;5034890;28;20068;-70
2022/09/12 03:08:53;;;;;;;10.43;7.55;;;;;;;16.47;83.40;98987.75;5034302;28;20072;-70
2022/09/12 03:11:52;;;;;;;12.77;8.40;;;;;;;16.34;83.84;98984.38;5034562;28;20029;-70
2022/09/12 03:14:41;;;;;;;9.75;8.45;;;;;;;16.27;84.07;98987.94;5042611;28;20127;-70
2022/09/12 03:17:33;;;;;;;12.13;9.00;;;;;;;16.17;83.60;98982.97;5034625;28;20098;-70
2022/09/12 03:20:02;;;;;;;10.02;7.88;;;;;;;16.06;83.54;98982.88;5035485;28;20518;-70
2022/09/12 03:22:47;;;;;;;8.40;7.55;;;;;;;15.96;84.12;98975.88;5034297;28;20108;-70
2022/09/12 03:25:27;;;;;;;9.57;7.60;;;;;;;15.97;84.11;98976.69;5034084;28;20076;-70
2022/09/12 03:28:23;;;;;;;15.73;7.68;;;;;;;15.94;83.84;98969.03;5034318;28;20370;-70
2022/09/12 03:30:52;;;;;;;9.90;7.35;;;;;;;15.83;84.79;98978.13;5033711;28;20037;-70
2022/09/12 03:33:21;;;;;;;9.95;7.43;;;;;;;15.80;84.92;98983.72;5034740;28;20521;-70
2022/09/12 03:35:48;;;;;;;9.50;6.63;;;;;;;15.77;84.63;98982.47;5053866;28;20025;-70
2022/09/12 03:38:14;;;;;;;9.82;7.43;;;;;;;15.75;85.02;98984.03;5039693;28;20041;-70
2022/09/12 03:40:39;;;;;;;9.90;6.82;;;;;;;15.84;84.95;98987.38;5040671;28;20452;-70
2022/09/12 03:43:06;;;;;;;11.77;7.25;;;;;;;15.81;84.15;98982.50;5053629;28;20068;-70
2022/09/12 03:45:32;;;;;;;12.10;7.43;;;;;;;15.83;84.40;98982.94;5046506;28;20499;-70
2022/09/12 03:47:58;;;;;;;8.40;6.85;;;;;;;15.98;83.44;98992.44;5045116;28;20025;-71
2022/09/12 03:50:23;;;;;;;10.32;6.50;;;;;;;15.88;83.04;98987.44;5053078;28;20063;-71
2022/09/12 03:52:49;;;;;;;8.73;6.15;;;;;;;15.81;83.81;98988.16;5053627;28;20107;-69
2022/09/12 03:55:14;;;;;;;12.43;6.53;;;;;;;15.77;83.56;98993.72;5039920;28;20024;-71
2022/09/12 03:57:40;;;;;;;6.95;6.32;;;;;;;15.84;83.68;99001.47;5053574;28;20387;-70
2022/09/12 04:00:09;;;;;;;7.22;6.53;;;;;;;15.70;83.89;98999.28;5041719;28;20048;-71
2022/09/12 04:02:35;;;;;;;7.53;6.82;;;;;;;15.67;84.63;99006.50;5031907;28;20071;-69
2022/09/12 04:05:00;;;;;;;8.50;6.18;;;;;;;15.55;84.32;98995.44;5033408;28;20034;-70
2022/09/12 04:07:26;;;;;;;12.00;6.03;;;;;;;15.52;84.43;99004.66;5033384;28;20377;-70
2022/09/12 04:09:52;;;;;;;7.35;6.20;;;;;;;15.53;83.81;99011.94;5037020;28;20025;-70
2022/09/12 04:12:18;;;;;;;9.52;6.20;;;;;;;15.56;83.62;99014.78;5036822;28;20037;-70
2022/09/12 04:14:44;;;;;;;6.65;5.57;;;;;;;15.53;84.01;99021.19;5035764;28;20017;-70
2022/09/12 04:17:09;;;;;;;13.15;5.93;;;;;;;15.76;82.75;99017.47;5044058;28;20511;-68
2022/09/12 04:19:35;;;;;;;8.40;4.78;;;;;;;15.91;81.71;99018.53;5048446;28;20071;-70
2022/09/12 04:22:01;;;;;;;5.82;5.28;;;;;;;15.94;81.89;99016.97;5051372;28;20562;-70
2022/09/12 04:24:26;;;;;;;23.10;10.45;;;;;;;16.02;81.33;99023.50;5038512;28;20059;-69
2022/09/12 04:26:52;;;;;;;5.47;4.57;;;;;;;15.92;80.97;99014.50;5033317;28;20025;-69
2022/09/12 04:29:17;;;;;;;8.48;5.35;;;;;;;15.88;81.46;99019.28;5037709;28;20364;-69
2022/09/12 04:31:43;;;;;;;5.30;4.80;;;;;;;15.76;82.15;99017.47;5034563;28;20075;-69
2022/09/12 04:34:09;;;;;;;15.30;5.95;;;;;;;15.77;82.01;99021.94;5043923;28;20025;-69
2022/09/12 04:36:35;;;;;;;5.70;5.10;;;;;;;15.73;82.71;99012.63;5052683;28;20029;-69
2022/09/12 04:39:02;;;;;;;8.00;5.40;;;;;;;15.75;82.40;99024.31;5051260;28;20033;-69
2022/09/12 04:41:30;;;;;;;9.70;5.18;;;;;;;15.73;82.44;99026.72;5047950;28;20033;-69
2022/09/12 04:44:02;;;;;;;7.47;5.10;;;;;;;15.74;82.22;99022.69;5031251;28;20058;-69
2022/09/12 04:46:30;;;;;;;5.10;4.32;;;;;;;15.92;82.03;99034.25;5041697;28;20033;-69
2022/09/12 04:48:56;;;;;;;11.38;5.07;;;;;;;15.95;81.39;99032.69;5049390;28;20127;-69
2022/09/12 04:51:29;;;;;;;5.60;4.55;;;;;;;16.05;80.20;99036.84;5036277;28;20099;-69
2022/09/12 04:54:01;;;;;;;5.63;4.68;;;;;;;16.12;80.00;99046.19;5048167;28;20112;-69
2022/09/12 04:56:28;;;;;;;6.53;3.85;;;;;;;16.21;78.89;99051.53;5031744;28;20044;-69
2022/09/12 04:58:55;;;;;;;5.95;4.57;;;;;;;16.26;77.69;99041.94;5042948;28;20029;-69
2022/09/12 05:01:22;;;;;;;4.38;3.70;;;;;;;16.48;76.72;99047.84;5051674;28;20028;-69
2022/09/12 05:03:48;;;;;;;5.93;3.40;;;;;;;16.37;76.51;99048.50;5051589;28;20025;-69
2022/09/12 05:06:22;;;;;;;4.75;3.95;;;;;;;16.39;76.02;99040.47;5052357;28;20119;-69
2022/09/12 05:08:48;;;;;;;4.30;3.55;;;;;;;16.46;75.56;99045.38;5050421;28;20040;-69
2022/09/12 05:11:17;;;;;;;3.60;3.30;;;;;;;16.52;74.68;99060.78;5044531;28;20040;-69
2022/09/12 05:13:43;;;;;;;8.38;3.50;;;;;;;16.63;74.66;99058.09;5042394;28;20021;-69
2022/09/12 05:16:14;;;;;;;14.45;3.42;;;;;;;16.72;73.92;99060.63;5038183;28;20450;-69
2022/09/12 05:18:40;;;;;;;6.40;3.25;;;;;;;16.74;73.46;99055.38;5047212;28;20551;-69
2022/09/12 05:21:08;;;;;;;5.07;2.80;;;;;;;16.77;73.05;99051.78;5035089;28;20495;-69
2022/09/12 05:23:34;;;;;;;5.25;3.25;;;;;;;16.94;72.74;99055.16;5037116;28;20472;-69
2022/09/12 05:26:01;;;;;;;5.63;3.40;;;;;;;16.96;71.56;99047.94;5046850;28;20431;-69
2022/09/12 05:28:35;;;;;;;3.60;3.05;;;;;;;17.01;72.47;99058.09;5043526;28;20496;-69
2022/09/12 05:31:16;;;;;;;6.38;3.30;;;;;;;17.12;72.36;99061.84;5035422;28;20072;-69
2022/09/12 05:33:43;;;;;;;4.82;3.28;;;;;;;17.22;72.28;99060.31;5034117;28;20051;-69
2022/09/12 05:36:12;;;;;;;4.10;3.38;;;;;;;17.34;71.91;99070.50;5034974;28;20108;-69
2022/09/12 05:38:37;;;;;;;7.50;3.05;;;;;;;17.48;71.17;99064.16;5032854;28;20035;-69
2022/09/12 05:41:17;;;;;;;3.17;2.88;;;;;;;17.47;70.57;99071.00;5033023;28;20372;-69
2022/09/12 05:43:44;;;;;;;6.47;3.13;;;;;;;17.67;71.15;99067.94;5037116;28;20048;-69
2022/09/12 05:46:20;;;;;;;3.55;3.25;;;;;;;17.72;71.51;99064.72;5040217;28;20353;-69
2022/09/12 05:48:48;;;;;;;3.88;3.58;;;;;;;17.75;70.88;99055.47;5031513;28;20431;-69
2022/09/12 05:51:19;;;;;;;6.70;3.10;;;;;;;17.92;70.75;99067.28;5033786;28;20108;-69
2022/09/12 05:53:51;;;;;;;9.20;2.90;;;;;;;17.94;71.16;99045.88;5040056;28;20063;-69
2022/09/12 05:56:19;;;;;;;5.35;3.28;;;;;;;18.06;70.88;99052.44;5036748;28;20044;-69
2022/09/12 05:58:53;;;;;;;4.85;2.45;;;;;;;17.92;70.77;99050.31;5034701;28;20477;-70
2022/09/12 06:01:19;;;;;;;4.32;2.33;;;;;;;17.89;70.17;99062.41;5032117;28;20460;-68
2022/09/12 06:03:47;;;;;;;5.10;2.28;;;;;;;18.04;69.65;99064.16;5029350;28;20036;-71
2022/09/12 06:06:14;;;;;;;7.93;3.17;;;;;;;18.20;68.05;99058.16;5036482;28;20037;-73
2022/09/12 06:08:41;;;;;;;4.05;2.78;;;;;;;18.10;68.74;99044.78;5036777;28;20072;-71
2022/09/12 06:11:08;;;;;;;4.93;2.08;;;;;;;18.02;67.62;99043.91;5031476;28;20107;-72
2022/09/12 06:13:37;;;;;;;5.68;3.20;;;;;;;18.03;68.51;99050.38;5031320;28;20173;-70
2022/09/12 06:16:08;;;;;;;2.42;2.22;;;;;;;18.10;67.94;99056.09;5031508;28;20033;-72
2022/09/12 06:18:34;;;;;;;2.90;2.50;;;;;;;18.03;68.21;99042.72;5041159;28;20048;-71
2022/09/12 06:21:11;;;;;;;4.18;3.08;;;;;;;18.01;67.07;99050.75;5051726;28;20447;-71
2022/09/12 06:23:37;;;;;;;7.70;2.78;;;;;;;18.18;67.09;99048.44;5033963;28;20066;-69
2022/09/12 06:26:04;;;;;;;2.53;2.33;;;;;;;18.33;66.57;99050.13;5057499;28;20047;-68
2022/09/12 06:28:31;;;;;;;2.95;2.72;;;;;;;18.24;67.01;99038.38;5040626;28;20029;-69
2022/09/12 06:31:05;;;;;;;7.47;2.30;;;;;;;18.28;67.40;99030.69;5047795;28;20098;-69
2022/09/12 06:33:33;;;;;;;7.72;2.97;;;;;;;18.36;67.97;99029.53;5043891;28;20036;-70
2022/09/12 06:36:11;;;;;;;2.97;1.98;;;;;;;18.51;66.14;99035.22;5048605;28;20045;-69
2022/09/12 06:38:38;;;;;;;4.90;2.30;;;;;;;18.67;66.35;99032.84;5040309;28;20111;-69
2022/09/12 06:41:05;;;;;;;4.93;2.35;;;;;;;18.83;64.76;99031.66;5066194;28;20104;-69
2022/09/12 06:43:32;;;;;;;2.20;2.00;;;;;;;18.92;65.12;99034.09;5047398;28;20610;-69
2022/09/12 06:45:58;;;;;;;4.35;2.08;;;;;;;18.94;64.09;99032.50;5040948;28;20029;-71
2022/09/12 06:48:23;;;;;;;4.15;2.05;;;;;;;19.07;63.26;99021.59;5050137;28;20499;-72
2022/09/12 06:51:01;;;;;;;3.67;2.28;;;;;;;19.10;63.01;99031.31;5033258;28;20053;-69
2022/09/12 06:53:29;;;;;;;3.75;2.17;;;;;;;19.24;62.90;99035.38;5030692;28;20029;-69
2022/09/12 06:56:25;;;;;;;2.28;2.08;;;;;;;19.35;61.65;99033.34;5047706;28;20434;-69
2022/09/12 06:58:51;;;;;;;2.30;1.80;;;;;;;19.25;60.19;99028.47;5033166;28;20060;-72
2022/09/12 07:01:23;;;;;;;5.05;2.38;;;;;;;19.36;61.29;99035.75;5038764;28;20042;-69
2022/09/12 07:03:51;;;;;;;3.35;1.90;;;;;;;19.49;60.77;99032.53;5041064;28;20025;-70
2022/09/12 07:06:19;;;;;;;8.38;1.95;;;;;;;19.63;59.82;99043.84;5044818;28;20411;-70
2022/09/12 07:08:45;;;;;;;2.92;2.05;;;;;;;19.76;59.68;99047.06;5052162;28;20033;-70
2022/09/12 07:11:16;;;;;;;11.32;1.80;;;;;;;19.82;59.81;99044.63;5048727;28;20029;-69
2022/09/12 07:13:43;;;;;;;2.25;1.60;;;;;;;19.95;58.15;99039.34;5034601;28;20400;-70
2022/09/12 07:16:09;;;;;;;4.35;1.40;;;;;;;20.07;58.16;99032.41;5049727;28;20388;-69
2022/09/12 07:18:37;;;;;;;3.90;1.80;;;;;;;20.09;57.07;99035.66;5050757;28;20029;-70
2022/09/12 07:21:05;;;;;;;1.83;1.73;;;;;;;20.15;57.03;99044.53;5040855;28;20024;-71
2022/09/12 07:23:31;;;;;;;2.53;2.33;;;;;;;20.46;56.60;99042.00;5043630;28;20113;-70
2022/09/12 07:25:59;;;;;;;2.50;1.95;;;;;;;20.44;55.32;99044.44;5053109;28;20041;-70
2022/09/12 07:28:31;;;;;;;1.98;1.30;;;;;;;20.50;53.13;99042.78;5047891;28;20033;-70
2022/09/12 07:31:03;;;;;;;1.20;1.10;;;;;;;20.70;51.86;99051.63;5032837;28;20111;-70
2022/09/12 07:33:28;;;;;;;6.80;1.42;;;;;;;20.70;51.93;99048.78;5033764;28;20439;-70
2022/09/12 07:35:54;;;;;;;7.05;1.50;;;;;;;20.75;51.65;99042.66;5033746;28;20025;-70
2022/09/12 07:38:20;;;;;;;1.30;1.20;;;;;;;20.90;51.87;99048.25;5033980;28;20065;-70
2022/09/12 07:40:45;;;;;;;2.97;1.42;;;;;;;20.85;51.71;99046.66;5033950;28;20387;-69
2022/09/12 07:43:11;;;;;;;1.38;1.20;;;;;;;20.95;49.56;99045.00;5033483;28;20053;-70
2022/09/12 07:45:40;;;;;;;2.58;0.90;;;;;;;20.97;48.84;99041.72;5033668;28;20040;-70
2022/09/12 07:48:06;;;;;;;4.85;1.70;;;;;;;21.14;48.66;99040.81;5034133;28;20021;-70
2022/09/12 07:50:32;;;;;;;6.78;1.20;;;;;;;21.23;49.70;99045.19;5033318;28;20190;-70
2022/09/12 07:52:57;;;;;;;1.83;1.50;;;;;;;21.35;49.08;99050.38;5036534;28;20384;-71
2022/09/12 07:55:23;;;;;;;1.90;1.60;;;;;;;21.34;48.32;99048.75;5045388;28;20025;-72
2022/09/12 07:57:50;;;;;;;4.13;1.63;;;;;;;21.45;49.51;99049.47;5033819;28;20024;-70
2022/09/12 08:00:16;;;;;;;2.53;1.30;;;;;;;21.46;48.88;99042.53;5032911;28;20029;-72
2022/09/12 08:02:42;;;;;;;1.70;1.60;;;;;;;21.56;49.25;99051.41;5053225;28;20057;-71
2022/09/12 08:05:07;;;;;;;3.30;1.80;;;;;;;21.52;48.98;99040.06;5039370;28;20064;-71
2022/09/12 08:07:33;;;;;;;4.30;1.70;;;;;;;21.65;49.33;99031.81;5043632;28;20451;-72
2022/09/12 08:09:59;;;;;;;5.25;1.83;;;;;;;21.79;49.80;99039.44;5048740;28;20028;-73
2022/09/12 08:12:26;;;;;;;9.32;2.60;;;;;;;21.96;48.81;99040.47;5044362;28;20033;-70
2022/09/12 08:14:52;;;;;;;2.33;1.95;;;;;;;21.84;49.20;99041.00;5038082;28;20037;-72
2022/09/12 08:17:17;;;;;;;6.45;1.60;;;;;;;21.96;49.76;99043.34;5039191;28;20028;-73
2022/09/12 08:19:43;;;;;;;2.80;1.60;;;;;;;22.02;47.94;99027.38;5049864;28;20586;-72
2022/09/12 08:22:10;;;;;;;4.13;1.30;;;;;;;21.97;45.25;99039.25;5042671;28;20411;-71
2022/09/12 08:24:35;;;;;;;1.40;1.30;;;;;;;22.23;46.71;99045.47;5041200;28;20035;-70
2022/09/12 08:27:01;;;;;;;1.40;1.17;;;;;;;22.06;45.68;99017.97;5035628;28;20535;-73
2022/09/12 08:29:26;;;;;;;1.75;1.38;;;;;;;22.09;44.12;99023.63;5045640;28;20094;-72
2022/09/12 08:31:52;;;;;;;1.38;1.27;;;;;;;22.18;44.92;99033.72;5052972;28;20024;-73
2022/09/12 08:34:18;;;;;;;9.77;2.95;;;;;;;22.15;44.59;99029.69;5035834;28;20029;-73
2022/09/12 08:36:43;;;;;;;3.00;1.95;;;;;;;22.12;44.91;99022.00;5043705;28;20035;-71
2022/09/12 08:39:11;;;;;;;3.47;1.40;;;;;;;22.32;44.91;99029.88;5051732;28;20110;-72
2022/09/12 08:41:43;;;;;;;6.20;1.38;;;;;;;22.08;44.13;99018.38;5042243;28;20117;-72
2022/09/12 08:44:39;;;;;;;4.05;1.50;;;;;;;22.38;44.18;99031.81;5035858;28;20461;-75
2022/09/12 08:47:16;;;;;;;3.33;1.23;;;;;;;22.26;43.75;99029.53;5035968;28;20454;-74
2022/09/12 08:49:48;;;;;;;1.90;1.20;;;;;;;22.19;42.71;99029.63;5034034;28;20116;-73
2022/09/12 08:52:20;;;;;;;4.47;1.40;;;;;;;22.47;43.35;99030.50;5032239;28;20029;-72
2022/09/12 08:54:46;;;;;;;3.17;2.28;;;;;;;22.37;43.68;99024.50;5039299;28;20028;-72
2022/09/12 08:57:14;;;;;;;4.68;1.33;;;;;;;22.32;42.87;99019.31;5037936;28;20041;-72
2022/09/12 08:59:43;;;;;;;2.38;1.70;;;;;;;22.28;43.25;99027.88;5036111;28;20793;-71
2022/09/12 09:02:21;;;;;;;5.22;1.50;;;;;;;22.44;42.40;99015.88;5035705;28;20037;-70
2022/09/12 09:04:56;;;;;;;6.88;1.88;;;;;;;22.42;42.60;99023.22;5033572;28;20163;-69
2022/09/12 09:07:50;;;;;;;2.70;1.88;;;;;;;22.38;43.51;99011.09;5034344;28;20082;-71
2022/09/12 09:10:52;;;;;;;3.92;1.58;;;;;;;22.78;42.67;99011.34;5034167;28;20033;-71
2022/09/12 09:16:26;;;;;;;3.63;1.75;;;;;;;22.67;42.67;99013.56;5037668;28;20049;-72
2022/09/12 09:18:56;;;;;;;17.13;2.10;;;;;;;22.70;42.18;99002.13;5032521;28;20037;-70
2022/09/12 09:21:49;;;;;;;6.55;1.38;;;;;;;22.76;41.57;99015.91;5031731;28;20040;-74
2022/09/12 09:24:20;;;;;;;2.72;1.30;;;;;;;22.91;42.64;98991.63;5042974;28;20040;-75
2022/09/12 09:26:50;;;;;;;3.20;1.20;;;;;;;22.97;42.09;99009.84;5049913;28;20025;-75
2022/09/12 09:29:24;;;;;;;3.63;1.00;;;;;;;22.74;41.16;99021.19;5049164;28;20029;-73
2022/09/12 09:31:58;;;;;;;2.53;1.40;;;;;;;22.89;41.09;99013.25;5042619;28;20424;-74
2022/09/12 09:34:31;;;;;;;2.30;1.63;;;;;;;22.92;41.17;99007.50;5030090;28;20443;-75
2022/09/12 09:37:07;;;;;;;6.28;1.98;;;;;;;22.82;42.46;99009.28;5029989;28;20029;-73
2022/09/12 09:39:58;;;;;;;2.40;1.60;;;;;;;23.11;42.31;99005.19;5029754;28;20052;-72
2022/09/12 09:42:42;;;;;;;3.72;1.30;;;;;;;22.69;41.86;99002.56;5029109;28;20821;-71
2022/09/12 09:45:20;;;;;;;1.83;1.25;;;;;;;23.05;40.94;99010.56;5029368;28;20369;-70
2022/09/12 09:48:14;;;;;;;1.50;1.40;;;;;;;23.36;41.09;99001.13;5035707;28;20039;-70
2022/09/12 09:50:39;;;;;;;3.30;2.45;;;;;;;22.88;40.73;98998.19;5029502;28;20586;-71
2022/09/12 09:53:08;;;;;;;3.90;2.08;;;;;;;22.95;41.55;98997.28;5029171;28;20029;-70
2022/09/12 09:55:42;;;;;;;2.47;1.98;;;;;;;23.07;41.31;99005.22;5029516;28;20096;-74
2022/09/12 09:58:08;;;;;;;1.98;1.88;;;;;;;23.25;41.09;99001.25;5029581;28;20083;-71
2022/09/12 10:00:36;;;;;;;2.92;1.60;;;;;;;23.53;40.78;99002.00;5029482;28;20516;-71
2022/09/12 10:03:07;;;;;;;5.45;1.67;;;;;;;23.49;39.77;99004.13;5029287;28;20067;-72
2022/09/12 10:05:44;;;;;;;3.60;1.98;;;;;;;23.61;38.98;98991.31;5040279;28;20032;-75
2022/09/12 10:08:18;;;;;;;4.60;1.92;;;;;;;23.52;39.80;99000.41;5044214;28;20037;-72
2022/09/12 10:10:58;;;;;;;2.00;1.90;;;;;;;23.43;39.62;98986.72;5047547;28;20503;-72
2022/09/12 10:13:51;;;;;;;6.00;1.98;;;;;;;23.27;39.78;98991.06;5038342;28;20463;-73
2022/09/12 10:16:33;;;;;;;2.47;2.00;;;;;;;23.67;40.38;98989.53;5029095;28;20033;-72
2022/09/12 10:19:03;;;;;;;3.38;2.00;;;;;;;23.67;39.66;98995.25;5033939;28;20442;-72
2022/09/12 10:21:28;;;;;;;2.35;2.15;;;;;;;23.69;39.55;98987.03;5029749;28;20412;-75
2022/09/12 10:23:59;;;;;;;3.70;2.13;;;;;;;23.84;39.73;98988.41;5031221;28;20144;-74
2022/09/12 10:26:27;;;;;;;4.47;1.70;;;;;;;23.64;39.43;98984.72;5040520;28;20104;-75
2022/09/12 10:28:54;;;;;;;2.40;2.20;;;;;;;23.89;40.16;98975.66;5044252;28;20051;-74
2022/09/12 10:31:28;;;;;;;5.57;1.95;;;;;;;24.07;39.17;98965.94;5040799;28;20114;-74
2022/09/12 10:33:57;;;;;;;8.65;2.25;;;;;;;24.14;39.11;98982.13;5040527;28;20060;-74
2022/09/12 10:36:23;;;;;;;2.83;2.50;;;;;;;24.27;39.53;98962.28;5038876;28;20028;-75
2022/09/12 10:38:56;;;;;;;12.52;2.80;;;;;;;24.22;38.32;98975.81;5050029;28;20472;-75
2022/09/12 10:41:22;;;;;;;2.03;1.92;;;;;;;24.56;38.52;98975.91;5055779;28;20038;-74
2022/09/12 10:43:49;;;;;;;2.45;1.88;;;;;;;24.56;38.01;98981.63;5036674;28;20053;-74
2022/09/12 10:46:14;;;;;;;2.88;2.30;;;;;;;24.60;38.23;98976.63;5051204;28;20081;-75
2022/09/12 10:48:41;;;;;;;6.05;2.13;;;;;;;24.37;38.52;98978.34;5037020;28;20029;-74
2022/09/12 10:51:23;;;;;;;2.63;1.80;;;;;;;24.31;37.00;98963.78;5032526;28;20037;-74
2022/09/12 10:53:50;;;;;;;9.18;1.90;;;;;;;24.45;36.61;98968.38;5033808;28;20021;-74
2022/09/12 10:56:19;;;;;;;4.13;2.20;;;;;;;24.48;37.86;98966.69;5032299;28;20487;-74
2022/09/12 10:59:30;;;;;;;1.80;1.70;;;;;;;24.71;37.86;98968.59;5033868;28;20033;-73
2022/09/12 11:02:00;;;;;;;4.15;1.90;;;;;;;24.90;37.14;98971.88;5034308;28;20024;-74
2022/09/12 11:04:50;;;;;;;5.03;1.88;;;;;;;24.91;37.42;98965.69;5032570;28;20478;-73
2022/09/12 11:07:34;;;;;;;2.45;2.25;;;;;;;24.71;36.50;98970.69;5033311;28;20046;-75
2022/09/12 11:10:12;;;;;;;1.65;1.55;;;;;;;24.79;36.32;98969.25;5045101;28;20029;-73
2022/09/12 11:12:50;;;;;;;12.38;1.90;;;;;;;24.51;36.41;98965.81;5036110;28;20431;-75
2022/09/12 11:15:34;;;;;;;3.55;2.38;;;;;;;24.43;36.62;98976.59;5035632;28;20024;-74
2022/09/12 11:18:23;;;;;;;4.10;2.28;;;;;;;24.62;36.19;98971.28;5037121;28;20112;-74
2022/09/12 11:21:03;;;;;;;3.45;2.88;;;;;;;24.23;36.36;98957.41;5043113;28;20037;-75
2022/09/12 11:23:41;;;;;;;;;;;;;;;24.31;38.43;98966.63;5042601;28;20038;-75
2022/09/12 11:26:25;;;;;;;6.22;2.70;;;;;;;24.45;37.35;98954.09;5044945;28;19917;-75
2022/09/12 11:29:20;;;;;;;2.85;2.17;;;;;;;24.65;36.31;98964.69;5035713;28;20460;-75
2022/09/12 11:32:10;;;;;;;5.97;2.13;;;;;;;24.48;37.42;98969.56;5033052;28;20060;-75
2022/09/12 11:35:14;;;;;;;4.38;1.88;;;;;;;25.01;35.65;98955.25;5034010;28;20472;-75
2022/09/12 11:37:42;;;;;;;3.85;2.22;;;;;;;24.67;35.70;98962.19;5039336;28;20044;-75
2022/09/12 11:40:29;;;;;;;3.47;2.28;;;;;;;24.68;35.51;98946.63;5037992;28;20150;-75
2022/09/12 11:43:13;;;;;;;5.88;2.20;;;;;;;24.83;35.87;98934.88;5043360;28;20049;-71
2022/09/12 11:45:52;;;;;;;2.08;1.88;;;;;;;24.62;35.81;98946.34;5035668;28;20124;-80
2022/09/12 11:48:33;;;;;;;2.70;1.95;;;;;;;25.08;34.12;98952.19;5033979;28;20037;-77
2022/09/12 11:51:02;;;;;;;5.88;2.53;;;;;;;25.05;33.92;98941.66;5034801;28;20032;-78
2022/09/12 11:53:33;;;;;;;2.33;2.13;;;;;;;25.07;34.12;98935.50;5049838;28;20391;-81
2022/09/12 11:56:08;;;;;;;7.35;3.17;;;;;;;24.74;35.11;98947.72;5038671;28;20384;-78
2022/09/12 11:58:36;;;;;;;9.68;3.35;;;;;;;24.72;34.76;98938.75;5040600;28;20476;-75